Time;durP1;ratioP1;P1;durP2;ratioP2;P2;SDS_P1;SDS_P2;PMS_P1;PMS_P2;Temp;Humidity;BMP_temperature;BMP_pressure;BME280_temperature;BME280_humidity;BME280_pressure;Samples;Min_cycle;Max_cycle;Signal;HPM_P1;HPM_P2
2022/09/23 00:01:58;;;;;;;6.03;5.53;;;;;;;9.70;65.54;95122.50;5115287;28;20198;-71
2022/09/23 00:04:26;;;;;;;6.72;6.10;;;;;;;9.69;65.87;95118.91;5115161;28;20188;-70
2022/09/23 00:06:53;;;;;;;7.05;6.40;;;;;;;9.67;65.66;95112.97;5116142;28;20200;-71
2022/09/23 00:09:20;;;;;;;7.22;6.53;;;;;;;9.69;65.50;95112.59;5115817;28;20180;-71
2022/09/23 00:11:47;;;;;;;6.68;6.07;;;;;;;9.69;65.49;95107.91;5115839;28;20199;-70
2022/09/23 00:14:14;;;;;;;7.68;6.97;;;;;;;9.67;65.54;95106.66;5115597;28;20240;-71
2022/09/23 00:16:40;;;;;;;7.32;6.72;;;;;;;9.66;65.73;95105.84;5115758;28;20227;-71
2022/09/23 00:19:07;;;;;;;8.73;7.63;;;;;;;9.62;65.84;95100.25;5114700;28;20218;-71
2022/09/23 00:21:35;;;;;;;7.28;6.57;;;;;;;9.60;65.91;95096.22;5116180;28;20195;-70
2022/09/23 00:24:02;;;;;;;7.35;6.55;;;;;;;9.58;65.95;95096.53;5115878;28;20187;-70
2022/09/23 00:26:29;;;;;;;11.80;8.75;;;;;;;9.55;66.29;95094.50;5115900;28;20196;-70
2022/09/23 00:28:55;;;;;;;10.27;8.48;;;;;;;9.52;66.37;95097.94;5115408;28;20209;-70
2022/09/23 00:31:24;;;;;;;9.27;8.38;;;;;;;9.48;66.30;95099.78;5115797;28;20188;-70
2022/09/23 00:33:55;;;;;;;9.85;8.82;;;;;;;9.46;66.32;95098.53;5115114;28;20196;-70
2022/09/23 00:36:22;;;;;;;9.15;7.95;;;;;;;9.42;66.54;95103.13;5115823;28;20199;-70
2022/09/23 00:38:50;;;;;;;7.90;7.10;;;;;;;9.41;66.29;95102.31;5115598;28;20183;-70
2022/09/23 00:41:17;;;;;;;6.68;6.07;;;;;;;9.40;66.29;95095.19;5115708;28;20228;-70
2022/09/23 00:43:46;;;;;;;6.55;5.95;;;;;;;9.36;66.14;95103.31;5115626;28;20207;-70
2022/09/23 00:46:16;;;;;;;6.40;5.90;;;;;;;9.34;66.61;95110.34;5115360;28;20539;-71
2022/09/23 00:48:43;;;;;;;5.70;5.30;;;;;;;9.29;66.12;95097.59;5115621;28;20195;-70
2022/09/23 00:51:15;;;;;;;5.30;4.90;;;;;;;9.28;66.54;95107.00;5115742;28;20248;-70
2022/09/23 00:53:42;;;;;;;5.78;5.28;;;;;;;9.29;66.20;95105.03;5114753;28;20207;-70
2022/09/23 00:56:11;;;;;;;4.80;4.50;;;;;;;9.29;66.21;95105.03;5114653;28;20287;-70
2022/09/23 00:58:40;;;;;;;4.78;4.38;;;;;;;9.27;66.05;95104.59;5115524;28;20180;-70
2022/09/23 01:01:06;;;;;;;4.45;4.15;;;;;;;9.28;65.53;95100.69;5114588;28;20643;-70
2022/09/23 01:03:33;;;;;;;4.65;4.32;;;;;;;9.29;65.51;95102.28;5115480;28;20192;-70
2022/09/23 01:06:00;;;;;;;4.93;4.53;;;;;;;9.30;65.88;95107.47;5114710;28;20198;-70
2022/09/23 01:08:27;;;;;;;4.78;4.43;;;;;;;9.30;65.67;95112.19;5114497;28;20240;-70
2022/09/23 01:11:00;;;;;;;5.00;4.68;;;;;;;9.28;66.11;95108.94;5115851;28;20188;-70
2022/09/23 01:13:35;;;;;;;4.80;4.40;;;;;;;9.24;66.06;95114.34;5114833;28;20608;-70
2022/09/23 01:16:06;;;;;;;4.70;4.40;;;;;;;9.23;66.04;95111.94;5114478;28;20207;-70
2022/09/23 01:18:38;;;;;;;4.85;4.55;;;;;;;9.23;66.03;95109.19;5114618;28;20257;-70
2022/09/23 01:21:14;;;;;;;5.13;4.72;;;;;;;9.22;65.82;95108.38;5114712;28;20274;-70
2022/09/23 01:24:17;;;;;;;4.78;4.45;;;;;;;9.20;65.76;95107.91;5114732;28;20221;-71
2022/09/23 01:26:55;;;;;;;5.03;4.63;;;;;;;9.16;66.20;95110.56;5101659;28;20222;-71
2022/09/23 01:29:57;;;;;;;4.75;4.45;;;;;;;9.15;66.39;95108.97;5114178;28;20257;-71
2022/09/23 01:32:34;;;;;;;5.10;4.70;;;;;;;9.18;65.99;95114.91;5111205;28;20229;-71
2022/09/23 01:35:05;;;;;;;4.72;4.38;;;;;;;9.16;66.10;95112.50;5115132;28;20199;-71
2022/09/23 01:37:37;;;;;;;5.60;5.20;;;;;;;9.15;65.69;95117.22;5115328;28;20188;-71
2022/09/23 01:40:07;;;;;;;5.15;4.78;;;;;;;9.16;65.87;95118.00;5114330;28;20207;-70
2022/09/23 01:42:36;;;;;;;5.70;5.10;;;;;;;9.15;66.49;95121.91;5114254;28;20203;-71
2022/09/23 01:45:07;;;;;;;4.57;4.28;;;;;;;9.12;66.70;95125.34;5114163;28;20191;-71
2022/09/23 01:47:40;;;;;;;4.93;4.45;;;;;;;9.15;65.93;95119.16;5114155;28;20188;-70
2022/09/23 01:50:55;;;;;;;4.80;4.43;;;;;;;9.15;66.36;95116.41;5114833;28;20632;-70
2022/09/23 01:52:57;;;;;;;5.00;4.60;;;;;;;9.18;66.49;95117.66;5113651;28;20272;-71
2022/09/23 01:55:28;;;;;;;4.78;4.20;;;;;;;9.18;66.56;95112.94;5117428;28;20590;-70
2022/09/23 01:57:58;;;;;;;4.68;4.28;;;;;;;9.19;66.52;95117.34;5117464;28;20207;-70
2022/09/23 02:00:25;;;;;;;4.50;4.10;;;;;;;9.18;66.60;95120.41;5118144;28;20518;-70
2022/09/23 02:02:58;;;;;;;4.53;4.22;;;;;;;9.18;66.33;95121.22;5118588;28;20192;-70
2022/09/23 02:05:28;;;;;;;5.38;4.88;;;;;;;9.16;66.70;95118.00;5117744;28;20200;-70
2022/09/23 02:07:58;;;;;;;4.90;4.60;;;;;;;9.13;66.69;95119.50;5118179;28;20191;-70
2022/09/23 02:10:30;;;;;;;4.80;4.40;;;;;;;9.15;66.62;95113.66;5118263;28;20184;-70
2022/09/23 02:13:00;;;;;;;4.97;4.47;;;;;;;9.11;66.08;95113.53;5117857;28;20260;-70
2022/09/23 02:15:31;;;;;;;5.40;5.00;;;;;;;9.09;66.31;95115.03;5118050;28;20180;-70
2022/09/23 02:18:02;;;;;;;5.28;4.88;;;;;;;9.02;66.37;95118.34;5118113;27;20188;-70
2022/09/23 02:20:31;;;;;;;5.05;4.65;;;;;;;8.97;66.38;95117.75;5117136;28;20227;-70
2022/09/23 02:23:02;;;;;;;5.00;4.60;;;;;;;8.92;66.57;95107.75;5117233;28;20202;-70
2022/09/23 02:25:32;;;;;;;5.18;4.65;;;;;;;8.90;66.88;95118.31;5117844;28;20211;-70
2022/09/23 02:28:07;;;;;;;4.93;4.53;;;;;;;8.90;66.82;95126.56;5116924;28;20623;-70
2022/09/23 02:30:38;;;;;;;4.65;4.25;;;;;;;8.90;67.06;95110.88;5116571;28;20226;-70
2022/09/23 02:33:10;;;;;;;4.47;4.07;;;;;;;8.93;67.09;95112.13;5117443;28;20210;-70
2022/09/23 02:35:42;;;;;;;4.47;4.07;;;;;;;8.96;67.08;95110.63;5118269;28;20199;-70
2022/09/23 02:38:17;;;;;;;4.55;4.25;;;;;;;8.97;66.83;95110.31;5117918;28;20286;-70
2022/09/23 02:40:52;;;;;;;4.20;3.80;;;;;;;8.94;67.02;95113.75;5118058;28;20214;-70
2022/09/23 02:43:22;;;;;;;4.30;4.00;;;;;;;8.96;66.78;95111.44;5117289;28;20207;-70
2022/09/23 02:45:49;;;;;;;4.43;4.03;;;;;;;9.00;66.67;95115.09;5116793;28;20566;-69
2022/09/23 02:48:19;;;;;;;4.20;3.90;;;;;;;9.01;66.47;95115.94;5117336;28;20187;-69
2022/09/23 02:50:47;;;;;;;3.65;3.35;;;;;;;9.01;66.52;95113.19;5117827;28;20592;-70
2022/09/23 02:53:14;;;;;;;4.00;3.70;;;;;;;8.98;66.52;95125.66;5116499;28;20195;-70
2022/09/23 02:55:41;;;;;;;4.38;3.97;;;;;;;8.95;66.07;95123.59;5116923;28;20206;-70
2022/09/23 02:58:10;;;;;;;4.03;3.72;;;;;;;8.95;66.21;95129.09;5117396;28;20616;-70
2022/09/23 03:00:48;;;;;;;4.03;3.63;;;;;;;8.92;66.44;95130.56;5117318;28;20203;-70
2022/09/23 03:03:36;;;;;;;4.45;4.15;;;;;;;8.90;65.96;95132.88;5116710;28;20203;-70
2022/09/23 03:06:09;;;;;;;5.72;5.22;;;;;;;8.84;66.03;95136.97;5116405;28;20187;-70
2022/09/23 03:08:42;;;;;;;5.22;4.35;;;;;;;8.78;65.55;95135.56;5117321;28;20172;-70
2022/09/23 03:11:12;;;;;;;4.90;4.50;;;;;;;8.73;66.13;95135.00;5116649;28;20223;-70
2022/09/23 03:13:54;;;;;;;4.97;4.47;;;;;;;8.74;65.98;95131.91;5116206;28;20203;-70
2022/09/23 03:16:30;;;;;;;4.93;4.50;;;;;;;8.70;65.92;95128.22;5117053;28;20211;-70
2022/09/23 03:19:05;;;;;;;4.50;4.20;;;;;;;8.67;65.66;95129.69;5116861;28;20203;-70
2022/09/23 03:21:35;;;;;;;5.00;4.60;;;;;;;8.62;66.00;95127.19;5116592;28;20199;-70
2022/09/23 03:24:05;;;;;;;5.10;4.60;;;;;;;8.63;66.46;95136.22;5116101;28;20195;-70
2022/09/23 03:26:33;;;;;;;4.35;4.05;;;;;;;8.65;66.46;95128.44;5116009;28;20253;-70
2022/09/23 03:29:03;;;;;;;4.78;4.28;;;;;;;8.67;66.28;95126.16;5115897;28;20211;-70
2022/09/23 03:31:29;;;;;;;4.50;4.10;;;;;;;8.70;66.20;95135.69;5115525;28;20682;-70
2022/09/23 03:34:00;;;;;;;4.35;3.97;;;;;;;8.71;66.02;95126.28;5116758;28;20180;-70
2022/09/23 03:39:24;;;;;;;5.05;4.65;;;;;;;8.66;66.38;95130.84;5116090;28;20227;-70
2022/09/23 03:41:53;;;;;;;4.75;4.35;;;;;;;8.68;66.17;95136.03;5115479;28;20260;-69
2022/09/23 03:44:21;;;;;;;5.35;4.43;;;;;;;8.68;66.28;95131.31;5116372;28;20187;-69
2022/09/23 03:46:49;;;;;;;5.10;4.60;;;;;;;8.68;66.12;95131.31;5116614;28;20270;-70
2022/09/23 03:49:19;;;;;;;4.70;4.30;;;;;;;8.70;66.14;95135.69;5116409;28;20237;-69
2022/09/23 03:51:46;;;;;;;4.40;4.03;;;;;;;8.71;66.29;95134.53;5115823;28;20199;-69
2022/09/23 03:54:12;;;;;;;4.35;4.00;;;;;;;8.70;66.24;95136.47;5116424;28;20195;-69
2022/09/23 03:56:39;;;;;;;4.60;4.20;;;;;;;8.68;66.10;95133.28;5116428;28;20191;-70
2022/09/23 03:59:06;;;;;;;4.95;4.55;;;;;;;8.68;66.22;95136.03;5116134;28;20203;-70
2022/09/23 04:01:33;;;;;;;5.18;4.70;;;;;;;8.62;66.30;95137.38;5116335;28;20230;-70
2022/09/23 04:04:00;;;;;;;5.00;4.57;;;;;;;8.57;66.39;95137.56;5115691;28;20184;-71
2022/09/23 04:06:28;;;;;;;5.88;5.00;;;;;;;8.53;65.98;95142.13;5115653;28;20195;-71
2022/09/23 04:08:55;;;;;;;5.72;5.10;;;;;;;8.48;66.25;95139.63;5116247;28;20198;-70
2022/09/23 04:11:22;;;;;;;5.47;5.07;;;;;;;8.42;65.84;95150.00;5115840;28;20658;-70
2022/09/23 04:13:48;;;;;;;6.00;5.40;;;;;;;8.34;66.06;95146.16;5115373;28;20200;-70
2022/09/23 04:16:15;;;;;;;5.60;5.20;;;;;;;8.27;66.01;95150.59;5115038;28;20203;-70
2022/09/23 04:18:42;;;;;;;5.53;5.13;;;;;;;8.23;66.22;95155.16;5114842;28;20199;-71
2022/09/23 04:21:09;;;;;;;5.65;5.10;;;;;;;8.18;66.53;95151.47;5115710;28;20672;-69
2022/09/23 04:23:37;;;;;;;5.75;5.25;;;;;;;8.14;66.68;95161.53;5116183;28;20180;-71
2022/09/23 04:26:04;;;;;;;5.72;5.22;;;;;;;8.14;67.18;95158.78;5115129;28;20203;-70
2022/09/23 04:28:31;;;;;;;6.32;5.82;;;;;;;8.10;66.97;95168.84;5115663;28;20184;-70
2022/09/23 04:30:58;;;;;;;6.53;5.82;;;;;;;8.09;67.00;95169.94;5114971;28;20707;-70
2022/09/23 04:33:25;;;;;;;6.35;5.50;;;;;;;8.08;67.00;95175.78;5115162;28;20206;-70
2022/09/23 04:35:52;;;;;;;5.88;5.38;;;;;;;8.05;66.76;95168.22;5115307;28;20235;-71
2022/09/23 04:38:20;;;;;;;6.15;5.40;;;;;;;8.05;67.48;95168.22;5114869;28;20199;-71
2022/09/23 04:40:49;;;;;;;5.80;5.30;;;;;;;8.04;67.33;95183.09;5115566;28;20211;-71
2022/09/23 04:43:16;;;;;;;6.63;5.88;;;;;;;8.02;67.34;95188.91;5115006;28;20196;-71
2022/09/23 04:45:42;;;;;;;6.20;5.70;;;;;;;7.99;67.27;95180.53;5115163;28;20196;-71
2022/09/23 04:48:09;;;;;;;6.15;5.55;;;;;;;8.03;67.30;95184.25;5115547;28;20199;-72
2022/09/23 04:50:37;;;;;;;7.97;6.20;;;;;;;8.02;67.62;95185.34;5115334;28;20438;-69
2022/09/23 04:53:04;;;;;;;6.80;6.10;;;;;;;8.05;67.91;95195.69;5113438;28;20432;-69
2022/09/23 04:55:31;;;;;;;6.25;5.70;;;;;;;8.06;67.76;95189.88;5115042;28;20206;-70
2022/09/23 04:57:59;;;;;;;6.78;6.18;;;;;;;8.09;68.08;95189.19;5114861;28;20191;-69
2022/09/23 05:00:27;;;;;;;9.10;7.15;;;;;;;8.12;67.75;95193.22;5114442;28;20525;-70
2022/09/23 05:02:54;;;;;;;6.45;5.85;;;;;;;8.14;67.58;95190.94;5114653;28;20203;-70
2022/09/23 05:05:23;;;;;;;5.90;5.40;;;;;;;8.17;67.82;95204.03;5114476;28;20184;-70
2022/09/23 05:07:50;;;;;;;6.10;5.57;;;;;;;8.17;67.77;95199.31;5114209;28;20546;-70
2022/09/23 05:10:17;;;;;;;6.10;5.53;;;;;;;8.19;68.26;95205.28;5114378;28;20199;-70
2022/09/23 05:12:44;;;;;;;6.93;6.35;;;;;;;8.25;68.51;95199.59;5115090;28;20191;-70
2022/09/23 05:15:14;;;;;;;6.60;6.05;;;;;;;8.24;68.68;95204.25;5115447;28;20204;-70
2022/09/23 05:17:41;;;;;;;6.90;6.28;;;;;;;8.28;68.46;95207.16;5115067;28;20215;-70
2022/09/23 05:20:09;;;;;;;7.28;6.68;;;;;;;8.32;68.19;95206.16;5114630;28;20204;-70
2022/09/23 05:22:36;;;;;;;7.90;7.10;;;;;;;8.34;68.51;95212.13;5113935;28;20219;-69
2022/09/23 05:25:02;;;;;;;7.18;6.60;;;;;;;8.36;68.31;95204.34;5114211;28;20514;-70
2022/09/23 05:27:30;;;;;;;7.20;6.60;;;;;;;8.37;68.32;95210.66;5114892;28;20540;-70
2022/09/23 05:29:56;;;;;;;6.90;6.20;;;;;;;8.39;68.48;95211.97;5116983;28;20314;-70
2022/09/23 05:32:25;;;;;;;7.22;6.63;;;;;;;8.40;68.23;95208.06;5119123;28;20188;-70
2022/09/23 05:34:54;;;;;;;6.93;6.32;;;;;;;8.48;68.27;95202.84;5118164;28;20192;-70
2022/09/23 05:37:21;;;;;;;6.28;5.78;;;;;;;8.54;68.23;95218.00;5118220;28;20192;-70
2022/09/23 05:39:48;;;;;;;6.90;6.20;;;;;;;8.59;68.24;95213.06;5119094;28;20173;-69
2022/09/23 05:42:16;;;;;;;6.53;5.95;;;;;;;8.64;67.92;95214.81;5117836;28;20208;-69
2022/09/23 05:44:43;;;;;;;6.43;5.93;;;;;;;8.69;68.21;95214.63;5117919;28;20191;-70
2022/09/23 05:47:10;;;;;;;6.60;6.10;;;;;;;8.74;67.95;95213.59;5118606;28;20184;-70
2022/09/23 05:49:38;;;;;;;7.10;5.95;;;;;;;8.78;67.74;95212.59;5118307;28;20646;-70
2022/09/23 05:52:04;;;;;;;7.45;5.95;;;;;;;8.82;67.38;95210.78;5117738;28;20206;-70
2022/09/23 05:54:31;;;;;;;5.85;5.35;;;;;;;8.86;67.52;95208.13;5117494;28;20199;-70
2022/09/23 05:56:58;;;;;;;6.22;5.72;;;;;;;8.91;67.51;95206.00;5117470;28;20206;-70
2022/09/23 05:59:25;;;;;;;6.55;6.00;;;;;;;8.97;67.35;95208.50;5117794;28;20305;-69
2022/09/23 06:01:52;;;;;;;6.00;5.50;;;;;;;9.00;67.00;95208.66;5118463;28;20219;-69
2022/09/23 06:04:19;;;;;;;5.68;5.28;;;;;;;9.06;67.01;95203.75;5117727;28;20195;-69
2022/09/23 06:06:47;;;;;;;5.68;5.18;;;;;;;9.09;66.50;95209.38;5118344;28;20188;-69
2022/09/23 06:09:15;;;;;;;5.45;5.05;;;;;;;9.12;66.31;95203.19;5117512;28;20290;-69
2022/09/23 06:11:42;;;;;;;5.40;5.00;;;;;;;9.16;66.42;95208.81;5117695;28;20195;-70
2022/09/23 06:14:11;;;;;;;5.72;5.30;;;;;;;9.18;66.44;95206.50;5117197;28;20191;-69
2022/09/23 06:16:38;;;;;;;5.35;4.95;;;;;;;9.20;65.99;95201.50;5116997;28;20191;-70
2022/09/23 06:19:05;;;;;;;6.10;5.50;;;;;;;9.22;66.10;95204.69;5116790;28;20650;-70
2022/09/23 06:21:32;;;;;;;5.90;5.50;;;;;;;9.26;66.31;95204.81;5116913;28;20631;-69
2022/09/23 06:24:01;;;;;;;6.30;5.57;;;;;;;9.26;66.28;95200.13;5118052;28;20199;-70
2022/09/23 06:26:32;;;;;;;6.32;5.82;;;;;;;9.30;66.43;95203.81;5117710;28;20211;-72
2022/09/23 06:29:00;;;;;;;5.30;4.90;;;;;;;9.29;66.09;95193.13;5116885;28;20263;-73
2022/09/23 06:31:27;;;;;;;5.10;4.70;;;;;;;9.32;66.04;95195.19;5118215;28;20218;-73
2022/09/23 06:33:54;;;;;;;5.20;4.80;;;;;;;9.37;66.16;95198.53;5117883;28;20188;-68
2022/09/23 06:36:21;;;;;;;5.32;4.93;;;;;;;9.37;65.72;95195.78;5117084;28;20231;-68
2022/09/23 06:38:48;;;;;;;5.82;5.28;;;;;;;9.37;65.78;95200.50;5117737;28;20248;-68
2022/09/23 06:41:16;;;;;;;5.45;5.03;;;;;;;9.40;66.07;95199.78;5115975;28;20207;-69
2022/09/23 06:43:43;;;;;;;5.43;5.05;;;;;;;9.45;66.02;95193.28;5117526;28;20192;-68
2022/09/23 06:46:14;;;;;;;6.05;5.45;;;;;;;9.50;66.27;95198.53;5117781;28;20183;-68
2022/09/23 06:48:42;;;;;;;5.93;5.43;;;;;;;9.53;66.50;95197.88;5116713;28;20202;-68
2022/09/23 06:51:11;;;;;;;5.95;5.35;;;;;;;9.53;66.09;95201.41;5118132;28;20188;-68
2022/09/23 06:53:38;;;;;;;5.85;5.35;;;;;;;9.51;66.05;95198.19;5117269;28;20195;-69
2022/09/23 06:56:06;;;;;;;5.72;5.30;;;;;;;9.53;66.27;95204.16;5116399;28;20203;-68
2022/09/23 06:58:36;;;;;;;6.03;5.50;;;;;;;9.55;66.31;95203.81;5116750;28;20192;-69
2022/09/23 07:01:05;;;;;;;5.70;5.30;;;;;;;9.59;66.35;95207.50;5116092;28;20244;-69
2022/09/23 07:03:33;;;;;;;5.80;5.40;;;;;;;9.67;66.67;95214.06;5116650;28;20196;-68
2022/09/23 07:06:00;;;;;;;5.95;5.45;;;;;;;9.73;66.25;95205.22;5116311;28;20199;-69
2022/09/23 07:08:29;;;;;;;5.35;4.95;;;;;;;9.80;66.16;95210.13;5117022;28;20612;-68
2022/09/23 07:10:57;;;;;;;5.50;5.00;;;;;;;9.86;66.15;95214.28;5117144;28;20529;-68
2022/09/23 07:13:24;;;;;;;5.05;4.57;;;;;;;9.89;65.67;95208.88;5116783;28;20623;-68
2022/09/23 07:15:53;;;;;;;5.55;5.15;;;;;;;9.94;65.56;95218.06;5116809;28;20626;-69
2022/09/23 07:18:22;;;;;;;5.57;5.18;;;;;;;9.98;65.32;95211.50;5117077;28;20190;-68
2022/09/23 07:20:49;;;;;;;5.20;4.80;;;;;;;10.01;65.32;95216.34;5117077;28;20267;-68
2022/09/23 07:23:16;;;;;;;4.82;4.50;;;;;;;10.06;64.92;95215.31;5116117;28;20215;-68
2022/09/23 07:25:45;;;;;;;4.57;4.28;;;;;;;10.10;64.41;95219.78;5116029;28;20191;-69
2022/09/23 07:28:12;;;;;;;4.85;4.45;;;;;;;10.19;64.58;95216.09;5116199;28;20200;-68
2022/09/23 07:30:40;;;;;;;4.82;4.43;;;;;;;10.21;64.03;95214.59;5115486;28;20247;-68
2022/09/23 07:33:08;;;;;;;4.68;4.38;;;;;;;10.27;63.56;95220.69;5115528;28;20199;-68
2022/09/23 07:35:35;;;;;;;4.40;4.10;;;;;;;10.33;63.67;95220.13;5115776;28;20191;-68
2022/09/23 07:38:02;;;;;;;4.85;4.55;;;;;;;10.43;63.42;95229.88;5116344;28;20219;-67
2022/09/23 07:40:29;;;;;;;6.00;5.50;;;;;;;10.55;63.99;95226.28;5116378;28;20184;-68
2022/09/23 07:42:56;;;;;;;5.53;5.07;;;;;;;10.55;62.68;95229.84;5115616;28;20216;-70
2022/09/23 07:45:24;;;;;;;5.32;4.85;;;;;;;10.52;62.02;95232.47;5115880;28;20191;-69
2022/09/23 07:47:50;;;;;;;5.00;4.50;;;;;;;10.50;62.49;95232.84;5116420;28;20199;-69
2022/09/23 07:50:19;;;;;;;4.40;4.10;;;;;;;10.58;62.33;95237.41;5116349;28;20188;-69
2022/09/23 07:52:45;;;;;;;4.88;4.50;;;;;;;10.72;62.90;95233.47;5115585;28;20187;-69
2022/09/23 07:55:13;;;;;;;4.70;4.30;;;;;;;10.84;62.35;95234.22;5115408;28;20191;-69
2022/09/23 07:57:40;;;;;;;4.65;4.35;;;;;;;10.97;62.59;95225.91;5116352;28;20275;-69
2022/09/23 08:00:08;;;;;;;4.43;4.13;;;;;;;11.08;61.59;95227.81;5115498;28;20200;-69
2022/09/23 08:02:35;;;;;;;4.63;4.32;;;;;;;11.17;60.81;95229.59;5115485;28;20532;-69
2022/09/23 08:05:02;;;;;;;5.00;4.50;;;;;;;11.29;61.20;95232.28;5115846;28;20188;-69
2022/09/23 08:07:33;;;;;;;4.68;4.22;;;;;;;11.42;60.68;95230.28;5116255;28;20188;-69
2022/09/23 08:10:00;;;;;;;4.75;4.35;;;;;;;11.44;60.39;95234.31;5115806;28;20604;-69
2022/09/23 08:12:28;;;;;;;5.00;4.60;;;;;;;11.55;60.56;95227.09;5115803;28;20191;-69
2022/09/23 08:14:54;;;;;;;4.40;4.03;;;;;;;11.70;60.62;95236.56;5115662;28;20595;-70
2022/09/23 08:17:21;;;;;;;4.68;4.38;;;;;;;11.81;60.05;95234.84;5115238;28;20212;-69
2022/09/23 08:19:48;;;;;;;4.53;4.13;;;;;;;11.94;59.29;95232.00;5114830;28;20195;-69
2022/09/23 08:22:15;;;;;;;4.80;4.50;;;;;;;12.00;59.09;95227.84;5115142;28;20223;-69
2022/09/23 08:24:43;;;;;;;4.78;4.45;;;;;;;12.04;58.87;95231.47;5114926;28;20191;-69
2022/09/23 08:27:11;;;;;;;4.38;3.97;;;;;;;12.05;58.42;95233.06;5115019;28;20191;-68
2022/09/23 08:29:38;;;;;;;4.70;4.40;;;;;;;12.07;58.38;95219.72;5114511;28;20262;-68
2022/09/23 08:32:05;;;;;;;4.47;4.18;;;;;;;12.18;58.42;95219.97;5115349;28;20230;-69
2022/09/23 08:34:31;;;;;;;4.22;3.80;;;;;;;12.29;57.82;95229.31;5114674;28;20196;-69
2022/09/23 08:36:58;;;;;;;4.57;4.15;;;;;;;12.22;57.64;95220.84;5114437;28;20198;-69
2022/09/23 08:39:25;;;;;;;4.40;4.03;;;;;;;12.12;57.40;95213.91;5114822;28;20202;-69
2022/09/23 08:42:05;;;;;;;4.28;3.95;;;;;;;12.19;56.83;95218.78;5114651;28;20298;-69
2022/09/23 08:44:41;;;;;;;3.85;3.55;;;;;;;12.34;56.39;95223.47;5114663;28;20527;-69
2022/09/23 08:47:15;;;;;;;4.05;3.75;;;;;;;12.46;56.41;95217.84;5114455;28;20195;-69
2022/09/23 08:49:51;;;;;;;4.47;4.10;;;;;;;12.60;56.41;95222.91;5115276;28;20191;-69
2022/09/23 08:52:20;;;;;;;3.90;3.60;;;;;;;12.72;56.03;95208.13;5114680;28;20192;-69
2022/09/23 08:54:47;;;;;;;3.95;3.65;;;;;;;12.87;55.58;95217.53;5114374;28;20196;-69
2022/09/23 08:57:31;;;;;;;3.75;3.50;;;;;;;12.87;54.50;95220.28;5114529;28;20214;-69
2022/09/23 08:59:58;;;;;;;4.15;3.80;;;;;;;12.79;54.84;95219.34;5114565;28;20184;-69
2022/09/23 09:02:25;;;;;;;4.22;3.92;;;;;;;12.85;55.51;95214.31;5114314;28;20226;-69
2022/09/23 09:04:55;;;;;;;3.65;3.35;;;;;;;12.96;54.75;95210.63;5118448;28;20196;-69
2022/09/23 09:07:28;;;;;;;3.70;3.40;;;;;;;13.08;55.00;95200.56;5119043;28;20515;-69
2022/09/23 09:09:58;;;;;;;3.10;2.88;;;;;;;13.23;53.02;95203.25;5118970;28;20549;-69
2022/09/23 09:12:30;;;;;;;3.83;3.53;;;;;;;13.37;53.70;95199.94;5118705;28;20196;-69
2022/09/23 09:14:59;;;;;;;3.70;3.40;;;;;;;13.51;53.41;95201.34;5118594;28;20199;-69
2022/09/23 09:17:35;;;;;;;3.30;3.10;;;;;;;13.56;53.41;95195.53;5118884;28;20199;-69
2022/09/23 09:20:08;;;;;;;3.67;3.38;;;;;;;13.56;52.99;95209.38;5118570;28;20187;-69
2022/09/23 09:22:46;;;;;;;3.35;3.10;;;;;;;13.49;51.99;95210.84;5118430;28;20211;-69
2022/09/23 09:25:22;;;;;;;5.45;3.50;;;;;;;13.51;51.43;95210.50;5118598;28;20619;-69
2022/09/23 09:27:51;;;;;;;3.35;3.15;;;;;;;13.66;50.80;95204.03;5118077;28;20245;-69
2022/09/23 09:30:19;;;;;;;4.30;3.90;;;;;;;13.83;51.14;95208.25;5118295;28;20247;-69
2022/09/23 09:32:48;;;;;;;3.50;3.22;;;;;;;13.97;49.98;95202.16;5119086;28;20214;-69
2022/09/23 09:35:27;;;;;;;2.63;2.53;;;;;;;14.11;49.01;95204.38;5118440;28;20188;-69
2022/09/23 09:37:54;;;;;;;2.50;2.40;;;;;;;14.23;48.62;95200.56;5118061;28;20288;-69
2022/09/23 09:40:21;;;;;;;2.83;2.63;;;;;;;14.28;48.09;95198.28;5118364;28;20595;-69
2022/09/23 09:42:50;;;;;;;3.13;2.85;;;;;;;14.35;49.36;95203.94;5117794;28;20215;-69
2022/09/23 09:45:25;;;;;;;3.78;2.70;;;;;;;14.53;51.11;95200.66;5117710;28;20627;-69
2022/09/23 09:47:56;;;;;;;3.17;2.97;;;;;;;14.53;49.86;95195.91;5118034;28;20259;-69
2022/09/23 09:50:42;;;;;;;2.97;2.78;;;;;;;14.57;49.55;95202.31;5117796;28;20199;-69
2022/09/23 09:53:21;;;;;;;2.97;2.78;;;;;;;14.59;49.87;95199.94;5117548;28;20203;-69
2022/09/23 09:55:58;;;;;;;3.47;3.17;;;;;;;14.74;48.47;95191.81;5117890;28;20209;-69
2022/09/23 09:58:28;;;;;;;2.97;2.78;;;;;;;14.73;48.35;95195.78;5118143;28;20195;-70
2022/09/23 10:00:56;;;;;;;2.97;2.78;;;;;;;14.74;48.26;95198.16;5117708;28;20528;-69
2022/09/23 10:03:32;;;;;;;2.88;2.67;;;;;;;14.74;47.98;95194.59;5118082;28;20200;-69
2022/09/23 10:05:59;;;;;;;3.10;2.90;;;;;;;14.59;48.25;95193.59;5117385;28;20202;-69
2022/09/23 10:08:30;;;;;;;3.42;3.13;;;;;;;14.47;48.73;95185.47;5118590;28;20180;-69
2022/09/23 10:11:02;;;;;;;3.38;3.17;;;;;;;14.45;49.67;95185.84;5118446;28;20204;-69
2022/09/23 10:13:30;;;;;;;3.33;3.13;;;;;;;14.57;49.89;95187.63;5117855;28;20265;-69
2022/09/23 10:15:59;;;;;;;3.10;2.90;;;;;;;14.68;48.74;95181.03;5117546;28;20191;-69
2022/09/23 10:18:30;;;;;;;3.15;2.95;;;;;;;14.81;47.87;95184.38;5117295;28;20291;-69
2022/09/23 10:21:03;;;;;;;3.25;2.97;;;;;;;14.87;47.56;95182.06;5117284;28;20195;-69
2022/09/23 10:23:32;;;;;;;3.10;2.90;;;;;;;14.84;47.75;95177.28;5117327;28;20208;-69
2022/09/23 10:26:00;;;;;;;2.80;2.60;;;;;;;14.87;48.05;95184.84;5117521;28;20199;-69
2022/09/23 10:28:33;;;;;;;3.05;2.67;;;;;;;14.93;48.13;95180.56;5117454;28;20208;-69
2022/09/23 10:31:08;;;;;;;2.85;2.65;;;;;;;14.99;46.70;95179.03;5116604;28;20250;-69
2022/09/23 10:33:40;;;;;;;2.75;2.55;;;;;;;15.04;44.98;95170.38;5118232;28;20256;-69
2022/09/23 10:36:09;;;;;;;2.80;2.60;;;;;;;14.98;44.38;95168.31;5118079;28;20184;-69
2022/09/23 10:38:36;;;;;;;2.63;2.42;;;;;;;14.88;45.50;95167.78;5116705;28;20615;-69
2022/09/23 10:46:44;;;;;;;3.55;3.25;;;;;;;14.50;45.45;95170.88;5116736;28;20229;-69
2022/09/23 10:49:31;;;;;;;3.03;2.83;;;;;;;14.48;45.63;95164.88;5116586;28;20207;-69
2022/09/23 10:52:06;;;;;;;2.65;2.53;;;;;;;14.37;46.36;95162.75;5117555;28;20194;-69
2022/09/23 10:54:42;;;;;;;3.30;3.00;;;;;;;14.28;46.86;95169.75;5116611;28;20195;-69
2022/09/23 11:00:09;;;;;;;2.90;2.70;;;;;;;14.61;47.62;95153.19;5116278;28;20199;-69
2022/09/23 11:02:50;;;;;;;3.22;2.95;;;;;;;14.96;45.23;95156.78;5116238;28;20286;-69
2022/09/23 11:05:24;;;;;;;2.50;2.30;;;;;;;14.91;43.84;95155.16;5117119;28;20183;-69
2022/09/23 11:07:59;;;;;;;2.58;2.38;;;;;;;14.81;44.34;95153.03;5116982;28;20203;-69
2022/09/23 11:10:47;;;;;;;2.65;2.42;;;;;;;14.88;44.27;95147.56;5116461;28;20183;-69
2022/09/23 11:13:23;;;;;;;4.25;2.65;;;;;;;15.01;42.86;95137.81;5116839;28;20590;-69
2022/09/23 11:15:58;;;;;;;1.90;1.80;;;;;;;15.19;43.31;95131.66;5099065;28;20542;-69
2022/09/23 11:18:35;;;;;;;1.73;1.63;;;;;;;15.14;42.43;95136.38;5116195;28;20210;-69
2022/09/23 11:21:09;;;;;;;2.30;2.10;;;;;;;15.18;42.08;95133.63;5116725;28;20587;-69
2022/09/23 11:23:54;;;;;;;1.80;1.70;;;;;;;15.28;41.92;95130.16;5117013;28;20552;-69
2022/09/23 11:26:30;;;;;;;2.25;2.03;;;;;;;15.37;42.76;95127.06;5116291;28;20233;-69
2022/09/23 11:29:11;;;;;;;2.00;1.90;;;;;;;15.43;42.16;95127.50;5115865;28;20272;-70
2022/09/23 11:31:48;;;;;;;2.10;2.00;;;;;;;15.35;42.16;95135.78;5116779;28;20195;-69
2022/09/23 11:34:33;;;;;;;1.80;1.70;;;;;;;15.13;40.46;95120.88;5115947;28;20263;-69
2022/09/23 11:37:03;;;;;;;2.05;1.88;;;;;;;15.06;41.94;95120.00;5115467;28;20195;-69
2022/09/23 11:39:35;;;;;;;2.05;1.95;;;;;;;15.15;42.23;95120.50;5115859;28;20199;-69
2022/09/23 11:42:02;;;;;;;2.58;1.73;;;;;;;15.27;40.31;95119.44;5115596;28;20195;-69
2022/09/23 11:44:32;;;;;;;2.10;1.90;;;;;;;15.33;40.43;95117.91;5115691;28;20215;-69
2022/09/23 11:47:05;;;;;;;1.70;1.60;;;;;;;15.38;39.87;95112.00;5115199;28;20207;-69
2022/09/23 11:49:38;;;;;;;2.58;1.90;;;;;;;15.49;40.28;95104.53;5116170;28;20244;-69
2022/09/23 11:52:06;;;;;;;2.03;1.83;;;;;;;15.58;39.78;95110.59;5116433;28;20188;-69
2022/09/23 11:54:37;;;;;;;1.50;1.40;;;;;;;15.66;40.34;95105.91;5116353;28;20200;-69
2022/09/23 11:57:08;;;;;;;1.85;1.75;;;;;;;15.68;39.24;95105.53;5115084;28;20627;-69
2022/09/23 11:59:38;;;;;;;2.20;2.10;;;;;;;15.74;39.93;95095.66;5116318;28;20203;-69
2022/09/23 12:02:17;;;;;;;1.90;1.80;;;;;;;15.82;40.37;95105.63;5116288;28;20215;-69
2022/09/23 12:04:48;;;;;;;1.83;1.73;;;;;;;15.85;38.14;95102.88;5115061;28;20215;-69